Time;durP1;ratioP1;P1;durP2;ratioP2;P2;SDS_P1;SDS_P2;PMS_P1;PMS_P2;Temp;Humidity;BMP_temperature;BMP_pressure;BME280_temperature;BME280_humidity;BME280_pressure;Samples;Min_cycle;Max_cycle;Signal;HPM_P1;HPM_P2
2023/05/18 00:00:52;;;;;;;5.33;4.80;;;;;;;-145.94;51.15;78407.53;5096371;28;20178;-67
2023/05/18 00:03:19;;;;;;;4.97;4.87;;;;;;;-145.94;51.47;78405.47;5096194;28;20212;-67
2023/05/18 00:05:48;;;;;;;8.40;4.27;;;;;;;-145.94;51.55;78415.69;5078123;28;20612;-67
2023/05/18 00:08:14;;;;;;;6.00;3.90;;;;;;;-145.94;51.79;78413.63;5096169;28;20262;-67
2023/05/18 00:10:41;;;;;;;4.77;4.47;;;;;;;-145.94;51.76;78405.47;5096248;28;20186;-67
2023/05/18 00:13:07;;;;;;;4.40;4.10;;;;;;;-145.94;51.73;78409.56;5096177;28;20235;-67
2023/05/18 00:15:34;;;;;;;4.47;4.27;;;;;;;-145.94;52.00;78419.75;5096649;28;20186;-67
2023/05/18 00:18:00;;;;;;;4.83;4.63;;;;;;;-145.94;51.71;78417.72;5096010;28;20603;-67
2023/05/18 00:20:28;;;;;;;4.57;4.37;;;;;;;-145.94;51.69;78427.91;5096519;28;20716;-67
2023/05/18 00:22:54;;;;;;;5.03;4.60;;;;;;;-145.94;52.03;78436.09;5096396;28;20254;-67
2023/05/18 00:25:21;;;;;;;5.60;5.10;;;;;;;-145.94;52.17;78438.13;5077763;28;20201;-67
2023/05/18 00:27:48;;;;;;;4.70;4.30;;;;;;;-145.94;52.44;78446.28;5095652;28;20266;-67
2023/05/18 00:30:17;;;;;;;4.40;4.20;;;;;;;-145.94;52.30;78446.28;5096053;28;20185;-67
2023/05/18 00:32:44;;;;;;;5.17;4.77;;;;;;;-145.94;52.59;78450.34;5077675;28;20230;-67
2023/05/18 00:35:11;;;;;;;8.40;4.30;;;;;;;-145.94;52.73;78450.34;5095994;28;20605;-67
2023/05/18 00:37:37;;;;;;;9.33;5.17;;;;;;;-145.94;52.35;78454.44;5095610;28;20219;-67
2023/05/18 00:40:05;;;;;;;4.40;4.10;;;;;;;-145.94;52.66;78462.59;5095607;28;20198;-67
2023/05/18 00:42:31;;;;;;;5.30;4.90;;;;;;;-145.94;52.72;78468.72;5077419;28;20194;-67
2023/05/18 00:44:58;;;;;;;5.57;5.27;;;;;;;-145.94;53.23;78472.81;5095724;28;20221;-67
2023/05/18 00:47:24;;;;;;;15.27;4.57;;;;;;;-145.94;53.26;78468.72;5077308;28;20217;-67
2023/05/18 00:49:51;;;;;;;4.93;4.30;;;;;;;-145.94;53.34;78472.81;5095450;28;20196;-67
2023/05/18 00:52:17;;;;;;;6.40;4.67;;;;;;;-145.94;53.46;78474.84;5077714;28;20588;-67
2023/05/18 00:54:45;;;;;;;4.73;4.43;;;;;;;-145.94;53.37;78474.84;5076997;28;20185;-67
2023/05/18 00:57:12;;;;;;;4.80;4.70;;;;;;;-145.94;53.60;78472.81;5095196;28;20206;-67
2023/05/18 00:59:39;;;;;;;12.27;5.07;;;;;;;-145.94;53.28;78472.81;5095545;28;20227;-67
2023/05/18 01:02:08;;;;;;;11.00;4.33;;;;;;;-145.94;53.41;78483.00;5077057;28;20217;-67
2023/05/18 01:04:36;;;;;;;4.83;4.60;;;;;;;-145.94;53.67;78483.00;5076970;28;20296;-67
2023/05/18 01:07:05;;;;;;;4.87;4.67;;;;;;;-145.94;53.72;78480.97;5095011;28;20250;-67
2023/05/18 01:09:33;;;;;;;4.60;4.27;;;;;;;-145.94;53.98;78489.13;5095523;28;20669;-67
2023/05/18 01:12:11;;;;;;;4.87;4.57;;;;;;;-145.94;53.95;78487.09;5094999;28;20185;-67
2023/05/18 01:14:51;;;;;;;4.90;4.80;;;;;;;-145.94;53.69;78489.13;5094972;28;20174;-67
2023/05/18 01:17:42;;;;;;;5.50;5.00;;;;;;;-145.94;53.77;78493.19;5076723;28;20213;-67
2023/05/18 01:20:23;;;;;;;5.33;4.53;;;;;;;-145.94;54.05;78503.41;5077637;28;20277;-67
2023/05/18 01:23:00;;;;;;;6.17;5.63;;;;;;;-145.94;54.14;78497.28;5095006;28;20508;-67
2023/05/18 01:25:32;;;;;;;5.33;5.03;;;;;;;-145.94;54.16;78503.41;5095034;28;20219;-67
2023/05/18 01:28:05;;;;;;;6.23;5.00;;;;;;;-145.94;54.37;78503.41;5076373;28;20251;-67
2023/05/18 01:30:40;;;;;;;7.87;5.20;;;;;;;-145.94;54.24;78507.47;5076501;28;20272;-67
2023/05/18 01:33:09;;;;;;;4.73;4.50;;;;;;;-145.94;54.54;78513.59;5076490;28;20187;-67
2023/05/18 01:35:36;;;;;;;5.17;4.83;;;;;;;-145.94;54.53;78517.69;5076391;28;20194;-67
2023/05/18 01:38:03;;;;;;;4.87;4.67;;;;;;;-145.94;54.66;78515.63;5094508;28;20210;-67
2023/05/18 01:40:46;;;;;;;5.47;4.63;;;;;;;-145.94;54.52;78523.81;5094419;28;20249;-67
2023/05/18 01:43:17;;;;;;;4.83;4.53;;;;;;;-145.94;54.85;78529.91;5094379;28;20190;-67
2023/05/18 01:45:47;;;;;;;6.57;4.90;;;;;;;-145.94;54.78;78529.91;5094959;28;20178;-67
2023/05/18 01:48:19;;;;;;;6.27;5.20;;;;;;;-145.94;54.76;78527.88;5094311;28;20209;-67
2023/05/18 01:50:47;;;;;;;5.63;5.27;;;;;;;-145.94;55.00;78531.97;5094575;28;20186;-67
2023/05/18 01:53:38;;;;;;;5.43;5.10;;;;;;;-145.94;55.20;78538.09;5094207;28;20243;-67
2023/05/18 01:56:07;;;;;;;4.57;4.47;;;;;;;-145.94;55.21;78546.25;5094387;28;20202;-67
2023/05/18 01:58:36;;;;;;;11.07;5.17;;;;;;;-145.94;55.25;78542.16;5075918;28;20211;-67
2023/05/18 02:01:03;;;;;;;4.53;4.43;;;;;;;-145.94;55.20;78540.13;5075971;28;20632;-67
2023/05/18 02:03:33;;;;;;;5.53;5.13;;;;;;;-145.94;55.40;78542.16;5075863;28;20213;-67
2023/05/18 02:06:00;;;;;;;6.83;6.17;;;;;;;-145.94;55.62;78548.28;5075850;28;20649;-67
2023/05/18 02:08:26;;;;;;;5.03;4.80;;;;;;;-145.94;55.55;78548.28;5074951;28;20213;-67
2023/05/18 02:10:53;;;;;;;8.87;5.27;;;;;;;-145.94;55.71;78552.38;5075802;28;20198;-67
2023/05/18 02:13:19;;;;;;;6.13;5.63;;;;;;;-145.94;55.87;78554.41;5075737;28;20243;-67
2023/05/18 02:15:46;;;;;;;4.97;4.73;;;;;;;-145.94;55.83;78556.44;5075947;28;20204;-67
2023/05/18 02:18:12;;;;;;;5.63;5.23;;;;;;;-145.94;55.91;78562.56;5075647;28;20216;-67
2023/05/18 02:20:39;;;;;;;5.53;5.23;;;;;;;-145.94;56.20;78562.56;5093767;28;20190;-67
2023/05/18 02:23:05;;;;;;;5.57;5.30;;;;;;;-145.94;56.11;78562.56;5075524;28;20197;-67
2023/05/18 02:25:32;;;;;;;8.27;4.73;;;;;;;-145.94;56.24;78566.63;5075558;28;20659;-67
2023/05/18 02:27:59;;;;;;;12.30;5.63;;;;;;;-145.94;56.23;78564.59;5075367;28;20222;-67
2023/05/18 02:30:25;;;;;;;5.87;5.50;;;;;;;-145.94;56.30;78570.72;5075504;28;20243;-67
2023/05/18 02:32:52;;;;;;;5.73;5.23;;;;;;;-145.94;56.28;78572.75;5075512;28;20551;-67
2023/05/18 02:35:18;;;;;;;5.43;5.03;;;;;;;-145.94;56.24;78576.84;5093536;28;20204;-67
2023/05/18 02:37:46;;;;;;;6.57;5.07;;;;;;;-145.94;56.39;78576.84;5075337;28;20224;-68
2023/05/18 02:40:13;;;;;;;8.87;4.63;;;;;;;-145.94;56.50;78576.84;5093459;28;20193;-67
2023/05/18 02:42:40;;;;;;;7.17;4.97;;;;;;;-145.94;56.58;78582.97;5075440;28;20217;-67
2023/05/18 02:45:08;;;;;;;5.37;4.93;;;;;;;-145.94;56.64;78582.97;5075181;28;20221;-67
2023/05/18 02:47:34;;;;;;;4.97;4.57;;;;;;;-145.94;56.61;78589.09;5075574;28;20210;-67
2023/05/18 02:50:01;;;;;;;5.67;5.20;;;;;;;-145.94;56.72;78591.13;5075228;28;20288;-67
2023/05/18 02:52:29;;;;;;;4.97;4.87;;;;;;;-145.94;56.84;78591.13;5075307;28;20194;-67
2023/05/18 02:54:55;;;;;;;5.40;5.00;;;;;;;-145.94;57.08;78599.28;5075208;28;20621;-67
2023/05/18 02:57:36;;;;;;;5.07;4.97;;;;;;;-145.94;56.79;78603.38;5060809;28;20213;-67
2023/05/18 03:00:10;;;;;;;5.13;4.83;;;;;;;-145.94;57.01;78601.31;5075191;28;20204;-67
2023/05/18 03:02:37;;;;;;;6.37;5.77;;;;;;;-145.94;57.13;78605.41;5075200;28;20194;-67
2023/05/18 03:05:05;;;;;;;5.50;5.03;;;;;;;-145.94;57.07;78613.56;5075353;28;20207;-67
2023/05/18 03:07:32;;;;;;;4.87;4.57;;;;;;;-145.94;57.04;78619.69;5075002;28;20233;-67
2023/05/18 03:10:02;;;;;;;5.50;5.00;;;;;;;-145.94;57.28;78615.59;5075069;28;20193;-67
2023/05/18 03:12:30;;;;;;;9.07;5.83;;;;;;;-145.94;57.43;78631.94;5075434;28;20713;-67
2023/05/18 03:14:56;;;;;;;4.67;4.47;;;;;;;-145.94;57.54;78625.81;5075044;28;20660;-67
2023/05/18 03:17:23;;;;;;;5.53;5.20;;;;;;;-145.94;57.39;78636.00;5074978;28;20236;-67
2023/05/18 03:19:50;;;;;;;4.93;4.60;;;;;;;-145.94;57.76;78640.09;5078003;28;20552;-67
2023/05/18 03:22:16;;;;;;;5.17;4.83;;;;;;;-145.94;57.64;78642.13;5097111;28;20197;-67
2023/05/18 03:24:43;;;;;;;5.33;5.10;;;;;;;-145.94;57.75;78654.38;5078846;28;20220;-67
2023/05/18 03:27:16;;;;;;;6.37;4.53;;;;;;;-145.94;57.83;78650.28;5078732;28;20210;-67
2023/05/18 03:29:43;;;;;;;5.37;5.10;;;;;;;-145.94;58.02;78652.31;5079021;28;20591;-67
2023/05/18 03:32:11;;;;;;;6.07;5.53;;;;;;;-145.94;57.88;78660.50;5078764;28;20194;-67
2023/05/18 03:34:38;;;;;;;5.87;5.47;;;;;;;-145.94;57.89;78658.44;5078734;28;20244;-67
2023/05/18 03:37:04;;;;;;;6.37;4.77;;;;;;;-145.94;57.96;78662.53;5078659;28;20217;-67
2023/05/18 03:39:32;;;;;;;5.90;5.60;;;;;;;-145.94;58.13;78664.56;5078685;28;20185;-67
2023/05/18 03:41:58;;;;;;;5.90;5.43;;;;;;;-145.94;58.13;78668.66;5078851;28;20201;-67
2023/05/18 03:44:25;;;;;;;5.13;5.00;;;;;;;-145.94;58.16;78662.53;5078407;28;20210;-67
2023/05/18 03:46:51;;;;;;;6.00;5.50;;;;;;;-145.94;58.28;78664.56;5078405;28;20241;-67
2023/05/18 03:49:18;;;;;;;16.37;6.00;;;;;;;-145.94;58.14;78662.53;5078407;28;20190;-67
2023/05/18 03:51:44;;;;;;;6.83;5.33;;;;;;;-145.94;58.14;78662.53;5096622;28;20182;-67
2023/05/18 03:54:11;;;;;;;6.47;6.10;;;;;;;-145.94;58.23;78662.53;5078591;28;20276;-67
2023/05/18 03:56:37;;;;;;;4.93;4.53;;;;;;;-145.94;58.25;78668.66;5078274;28;20387;-67
2023/05/18 03:59:05;;;;;;;10.90;6.37;;;;;;;-145.94;58.36;78672.72;5078314;28;20186;-67
2023/05/18 04:01:32;;;;;;;5.03;4.83;;;;;;;-145.94;58.29;78674.75;5096429;28;20192;-67
2023/05/18 04:03:59;;;;;;;5.03;4.73;;;;;;;-145.94;58.41;78676.81;5078959;28;20206;-67
2023/05/18 04:06:26;;;;;;;5.53;5.23;;;;;;;-145.94;58.36;78674.75;5096246;28;20656;-67
2023/05/18 04:08:53;;;;;;;5.60;5.30;;;;;;;-145.94;58.47;78676.81;5096297;28;20186;-67
2023/05/18 04:11:21;;;;;;;6.80;5.87;;;;;;;-145.94;58.49;78674.75;5078117;28;20237;-67
2023/05/18 04:13:48;;;;;;;5.77;5.37;;;;;;;-145.94;58.58;78678.84;5078199;28;20599;-67
2023/05/18 04:16:15;;;;;;;6.70;6.30;;;;;;;-145.94;58.51;78674.75;5096084;28;20660;-67
2023/05/18 04:18:43;;;;;;;9.40;6.73;;;;;;;-145.94;58.58;78674.75;5078094;28;20292;-67
2023/05/18 04:21:10;;;;;;;6.20;5.80;;;;;;;-145.94;58.65;78674.75;5077956;28;20210;-66
2023/05/18 04:23:37;;;;;;;6.43;6.00;;;;;;;-145.94;58.68;78684.97;5077782;28;20251;-66
2023/05/18 04:26:05;;;;;;;7.47;6.83;;;;;;;-145.94;59.00;78689.03;5077794;28;20564;-66
2023/05/18 04:28:31;;;;;;;7.27;6.63;;;;;;;-145.94;58.75;78695.16;5095674;28;20236;-67
2023/05/18 04:30:58;;;;;;;6.70;6.23;;;;;;;-145.94;58.87;78678.84;5076748;28;20225;-67
2023/05/18 04:33:28;;;;;;;7.40;6.37;;;;;;;-145.94;58.80;78684.97;5095833;28;20186;-66
2023/05/18 04:35:54;;;;;;;5.97;5.67;;;;;;;-145.94;58.67;78676.81;5077639;28;20656;-66
2023/05/18 04:38:24;;;;;;;8.07;6.30;;;;;;;-145.94;58.58;78676.81;5077664;28;20268;-66
2023/05/18 04:40:52;;;;;;;10.47;7.07;;;;;;;-145.94;58.76;78687.00;5077523;28;20198;-66
2023/05/18 04:43:20;;;;;;;7.93;6.97;;;;;;;-145.94;58.55;78674.75;5077702;28;20609;-66
2023/05/18 04:45:49;;;;;;;6.93;6.53;;;;;;;-145.94;58.45;78666.59;5095479;28;20547;-66
2023/05/18 04:48:19;;;;;;;7.10;6.50;;;;;;;-145.94;58.45;78670.69;5077299;28;20678;-66
2023/05/18 04:50:46;;;;;;;13.60;6.90;;;;;;;-145.94;58.18;78670.69;5077263;28;20193;-66
2023/05/18 04:53:12;;;;;;;7.53;6.73;;;;;;;-145.94;58.23;78660.50;5077310;28;20190;-66
2023/05/18 04:55:39;;;;;;;7.80;7.27;;;;;;;-145.94;57.95;78648.25;5077197;28;20669;-66
2023/05/18 04:58:10;;;;;;;7.83;7.20;;;;;;;-145.94;57.75;78648.25;5077071;28;20213;-66
2023/05/18 05:00:36;;;;;;;10.50;7.03;;;;;;;-145.94;57.99;78654.38;5077199;28;20690;-66
2023/05/18 05:03:03;;;;;;;6.87;6.37;;;;;;;-145.94;57.99;78656.41;5077150;28;20276;-66
2023/05/18 05:05:30;;;;;;;9.33;7.27;;;;;;;-145.94;57.66;78648.25;5076941;28;20221;-66
2023/05/18 05:07:57;;;;;;;11.80;7.33;;;;;;;-145.94;57.69;78646.22;5076927;28;20214;-66
2023/05/18 05:10:24;;;;;;;8.00;7.27;;;;;;;-145.94;57.28;78631.94;5077762;28;20593;-66
2023/05/18 05:12:51;;;;;;;8.63;6.60;;;;;;;-145.94;57.04;78627.84;5095537;28;20706;-66
2023/05/18 05:15:18;;;;;;;9.57;7.33;;;;;;;-145.94;57.04;78609.47;5076866;28;20182;-66
2023/05/18 05:17:46;;;;;;;7.90;7.27;;;;;;;-145.94;57.30;78609.47;5076741;28;20350;-66
2023/05/18 05:20:13;;;;;;;7.33;6.93;;;;;;;-145.94;57.24;78601.31;5076749;28;20193;-66
2023/05/18 05:22:39;;;;;;;15.97;7.17;;;;;;;-145.94;56.82;78589.09;5076648;28;20231;-66
2023/05/18 05:25:08;;;;;;;13.17;8.00;;;;;;;-145.94;57.24;78578.88;5077441;28;20259;-66
2023/05/18 05:27:35;;;;;;;7.40;6.67;;;;;;;-145.94;56.81;78572.75;5076570;28;20625;-66
2023/05/18 05:30:02;;;;;;;7.93;7.03;;;;;;;-145.94;56.82;78566.63;5077121;28;20217;-66
2023/05/18 05:32:31;;;;;;;12.60;7.43;;;;;;;-145.94;56.23;78560.53;5076851;28;20282;-66
2023/05/18 05:34:58;;;;;;;7.80;6.90;;;;;;;-145.94;55.87;78556.44;5076381;28;20656;-66
2023/05/18 05:37:25;;;;;;;8.17;7.00;;;;;;;-145.94;55.83;78548.28;5076339;28;20655;-66
2023/05/18 05:39:51;;;;;;;9.90;7.87;;;;;;;-145.94;55.51;78556.44;5076405;28;20692;-66
2023/05/18 05:42:18;;;;;;;8.37;6.67;;;;;;;-145.94;55.69;78542.16;5094639;28;20243;-66
2023/05/18 05:44:46;;;;;;;14.47;7.20;;;;;;;-145.94;55.58;78523.81;5076503;28;20201;-66
2023/05/18 05:47:18;;;;;;;8.60;6.57;;;;;;;-145.94;55.39;78503.41;5076208;28;20209;-66
2023/05/18 05:49:45;;;;;;;7.73;7.03;;;;;;;-145.94;55.17;78493.19;5076108;28;20653;-66
2023/05/18 05:52:11;;;;;;;8.07;7.23;;;;;;;-145.94;54.82;78483.00;5076098;28;20194;-67
2023/05/18 05:54:39;;;;;;;7.10;6.63;;;;;;;-145.94;54.72;78476.88;5059631;28;20686;-67
2023/05/18 05:57:06;;;;;;;6.90;6.40;;;;;;;-145.94;54.45;78468.72;5094097;28;20246;-67
2023/05/18 05:59:33;;;;;;;10.93;7.40;;;;;;;-145.94;54.48;78478.91;5076015;28;20270;-67
2023/05/18 06:01:59;;;;;;;7.30;6.77;;;;;;;-145.94;54.17;78456.47;5075905;28;20572;-67
2023/05/18 06:04:26;;;;;;;6.50;5.87;;;;;;;-145.94;53.37;78450.34;5075847;28;20662;-67
2023/05/18 06:06:53;;;;;;;8.63;6.37;;;;;;;-145.94;53.76;78434.03;5076143;28;20216;-67
2023/05/18 06:09:20;;;;;;;7.73;6.30;;;;;;;-145.94;53.48;78425.88;5077106;28;20187;-67
2023/05/18 06:11:47;;;;;;;7.63;6.80;;;;;;;-145.94;53.48;78409.56;5076548;28;20189;-67
2023/05/18 06:14:14;;;;;;;6.17;5.67;;;;;;;-145.94;54.17;78391.19;5076157;28;20189;-67
2023/05/18 06:16:41;;;;;;;7.87;6.37;;;;;;;-145.94;52.81;78391.19;5075951;28;20194;-67
2023/05/18 06:19:07;;;;;;;7.13;6.40;;;;;;;-145.94;52.71;78378.97;5075968;28;20209;-67
2023/05/18 06:21:34;;;;;;;12.60;6.10;;;;;;;-145.94;52.72;78374.88;5094500;28;20188;-67
2023/05/18 06:24:03;;;;;;;6.37;6.17;;;;;;;-145.94;52.77;78370.81;5077162;28;20200;-66
2023/05/18 06:26:44;;;;;;;5.30;4.87;;;;;;;-145.94;52.21;78348.38;5076549;28;20537;-67
2023/05/18 06:29:33;;;;;;;6.37;5.80;;;;;;;-145.94;52.16;78346.31;5086760;28;20216;-67
2023/05/18 06:32:11;;;;;;;6.90;6.30;;;;;;;-145.94;51.97;78340.19;5076690;28;20189;-67
2023/05/18 06:34:41;;;;;;;7.53;6.67;;;;;;;-145.94;51.64;78338.16;5076161;28;20174;-66
2023/05/18 06:37:07;;;;;;;8.83;6.17;;;;;;;-145.94;51.42;78315.72;5075895;28;20308;-67
2023/05/18 06:39:34;;;;;;;6.67;6.13;;;;;;;-145.94;51.54;78307.56;5076138;28;20235;-67
2023/05/18 06:42:00;;;;;;;5.23;5.13;;;;;;;-145.94;50.75;78305.53;5075728;28;20566;-67
2023/05/18 06:44:32;;;;;;;10.07;6.63;;;;;;;-145.94;51.06;78307.56;5075745;28;20201;-67
2023/05/18 06:47:24;;;;;;;8.00;5.50;;;;;;;-145.94;50.99;78295.31;5078274;28;20710;-67
2023/05/18 06:49:51;;;;;;;7.20;6.40;;;;;;;-145.94;51.74;78276.97;5075742;28;20303;-67
2023/05/18 06:52:17;;;;;;;5.77;5.47;;;;;;;-145.94;51.41;78258.59;5075543;28;20193;-67
2023/05/18 06:54:44;;;;;;;7.60;6.10;;;;;;;-145.94;51.45;78252.47;5075030;28;20192;-67
2023/05/18 06:57:12;;;;;;;8.80;5.80;;;;;;;-145.94;50.71;78234.13;5076804;28;20680;-67
2023/05/18 06:59:39;;;;;;;6.97;5.23;;;;;;;-145.94;49.87;78221.88;5075909;28;20259;-67
2023/05/18 07:02:06;;;;;;;7.37;5.80;;;;;;;-145.94;49.94;78217.81;5076663;28;20553;-67
2023/05/18 07:04:32;;;;;;;6.80;5.57;;;;;;;-145.94;50.92;78211.69;5075087;28;20197;-67
2023/05/18 07:06:59;;;;;;;6.47;5.93;;;;;;;-145.94;50.59;78201.50;5093390;28;20206;-67
2023/05/18 07:09:25;;;;;;;9.57;5.60;;;;;;;-145.94;50.38;78181.09;5093301;28;20709;-67
2023/05/18 07:11:51;;;;;;;6.83;5.83;;;;;;;-145.94;49.75;78166.81;5093442;28;20623;-67
2023/05/18 07:14:18;;;;;;;12.33;5.93;;;;;;;-145.94;49.11;78158.66;5093437;28;20652;-67
2023/05/18 07:16:46;;;;;;;5.73;5.03;;;;;;;-145.94;49.46;78144.38;5093089;28;20329;-69
2023/05/18 07:19:13;;;;;;;6.83;6.23;;;;;;;-145.94;49.33;78128.06;5093135;28;20186;-68
2023/05/18 07:21:39;;;;;;;5.63;5.33;;;;;;;-145.94;49.48;78121.94;5093088;28;20197;-67
2023/05/18 07:24:06;;;;;;;6.30;5.87;;;;;;;-145.94;48.33;78101.53;5093042;28;20198;-66
2023/05/18 07:26:32;;;;;;;6.50;5.93;;;;;;;-145.94;48.78;78099.50;5074814;28;20201;-66
2023/05/18 07:28:59;;;;;;;6.17;5.50;;;;;;;-145.94;48.34;78095.41;5093072;28;20210;-68
2023/05/18 07:31:26;;;;;;;11.40;6.23;;;;;;;-145.94;47.71;78105.63;5093400;28;20581;-66
2023/05/18 07:33:52;;;;;;;11.37;5.97;;;;;;;-145.94;47.37;78115.81;5093194;28;20190;-66
2023/05/18 07:36:19;;;;;;;6.23;5.63;;;;;;;-145.94;47.74;78107.66;5093243;28;20659;-66
2023/05/18 07:38:46;;;;;;;12.83;6.17;;;;;;;-145.94;47.21;78113.78;5093445;28;20255;-66
2023/05/18 07:41:12;;;;;;;9.00;5.60;;;;;;;-145.94;47.79;78109.69;5092842;28;20190;-66
2023/05/18 07:43:39;;;;;;;6.17;5.47;;;;;;;-145.94;47.71;78105.63;5093471;28;20185;-66
2023/05/18 07:46:05;;;;;;;7.47;5.03;;;;;;;-145.94;46.92;78105.63;5092712;28;20209;-66
2023/05/18 07:48:32;;;;;;;12.70;6.30;;;;;;;-145.94;46.38;78101.53;5093331;28;20206;-66
2023/05/18 07:50:58;;;;;;;6.83;6.00;;;;;;;-145.94;47.04;78099.50;5092670;28;20648;-66
2023/05/18 07:53:25;;;;;;;6.77;6.27;;;;;;;-145.94;46.46;78097.47;5092732;28;20186;-66
2023/05/18 07:55:51;;;;;;;10.13;6.27;;;;;;;-145.94;47.57;78083.19;5093016;28;20170;-66
2023/05/18 07:58:18;;;;;;;13.73;6.73;;;;;;;-145.94;47.39;78072.97;5092648;28;20202;-66
2023/05/18 08:00:44;;;;;;;7.07;6.50;;;;;;;-145.94;46.74;78060.75;5092712;28;20198;-66
2023/05/18 08:03:11;;;;;;;5.90;5.47;;;;;;;-145.94;46.61;78054.63;5092925;28;20190;-66
2023/05/18 08:05:37;;;;;;;6.03;5.67;;;;;;;-145.94;46.44;78038.31;5093280;28;20205;-66
2023/05/18 08:08:04;;;;;;;6.47;6.13;;;;;;;-145.94;47.18;78030.16;5096356;28;20212;-66
2023/05/18 08:10:32;;;;;;;11.47;6.10;;;;;;;-145.94;46.14;78026.06;5096809;28;20235;-66
2023/05/18 08:12:59;;;;;;;10.03;5.73;;;;;;;-145.94;45.83;78024.03;5096438;28;20188;-66
2023/05/18 08:15:25;;;;;;;8.43;5.33;;;;;;;-145.94;45.76;78001.59;5096468;28;20577;-66
2023/05/18 08:17:53;;;;;;;7.50;5.27;;;;;;;-145.94;46.30;77985.28;5096041;28;20252;-66
2023/05/18 08:20:20;;;;;;;10.63;6.27;;;;;;;-145.94;45.83;77973.03;5096090;28;20242;-66
2023/05/18 08:22:46;;;;;;;6.17;5.67;;;;;;;-145.94;46.30;77950.59;5095966;28;20208;-66
2023/05/18 08:25:13;;;;;;;7.77;5.83;;;;;;;-145.94;45.18;77946.50;5096538;28;20194;-66
2023/05/18 08:27:39;;;;;;;8.27;5.47;;;;;;;-145.94;45.66;77940.41;5095941;28;20640;-67
2023/05/18 08:30:07;;;;;;;7.93;5.67;;;;;;;-145.94;44.28;77938.34;5096453;28;20613;-67
2023/05/18 08:32:35;;;;;;;12.87;6.03;;;;;;;-145.94;44.27;77946.50;5096402;28;20189;-67
2023/05/18 08:35:04;;;;;;;7.17;4.87;;;;;;;-145.94;45.18;77932.22;5095762;28;20181;-67
2023/05/18 08:37:31;;;;;;;7.17;5.27;;;;;;;-145.94;44.76;77930.19;5096180;28;20267;-67
2023/05/18 08:39:58;;;;;;;11.03;5.67;;;;;;;-145.94;43.44;77944.47;5095621;28;20190;-67
2023/05/18 08:42:32;;;;;;;5.50;5.10;;;;;;;-145.94;45.08;77934.28;5096195;28;20256;-67
2023/05/18 08:45:27;;;;;;;8.30;5.10;;;;;;;-145.94;43.02;77936.31;5095823;28;20193;-67
2023/05/18 08:47:56;;;;;;;10.80;4.93;;;;;;;-145.94;42.88;77958.75;5095579;28;20691;-67
2023/05/18 08:50:25;;;;;;;6.70;5.40;;;;;;;-145.94;42.93;77968.94;5095435;28;20186;-67
2023/05/18 08:52:54;;;;;;;8.70;5.37;;;;;;;-145.94;43.76;77966.91;5095396;28;20190;-67
2023/05/18 08:55:22;;;;;;;6.27;5.67;;;;;;;-145.94;44.20;77948.56;5095351;28;20729;-67
2023/05/18 08:57:56;;;;;;;7.70;4.80;;;;;;;-145.94;43.33;77950.59;5095239;28;20205;-67
2023/05/18 09:00:25;;;;;;;8.80;4.60;;;;;;;-145.94;43.09;77942.44;5095604;28;20170;-67
2023/05/18 09:02:52;;;;;;;5.40;5.20;;;;;;;-145.94;43.73;77936.31;5077566;28;20243;-67
2023/05/18 09:05:20;;;;;;;9.10;5.33;;;;;;;-145.94;43.37;77932.22;5095076;28;20206;-67
2023/05/18 09:07:49;;;;;;;6.03;5.53;;;;;;;-145.94;42.17;77936.31;5095045;28;20292;-67
2023/05/18 09:10:16;;;;;;;9.57;5.30;;;;;;;-145.94;43.13;77932.22;5095085;28;20190;-67
2023/05/18 09:12:46;;;;;;;10.17;5.03;;;;;;;-145.94;43.24;77909.78;5095067;28;20186;-67
2023/05/18 09:15:16;;;;;;;6.77;5.90;;;;;;;-145.94;43.36;77911.84;5095545;28;20223;-67
2023/05/18 09:17:42;;;;;;;7.67;5.67;;;;;;;-145.94;43.06;77911.84;5094661;28;20750;-67
2023/05/18 09:20:09;;;;;;;26.70;5.50;;;;;;;-145.94;42.67;77893.47;5095032;28;20194;-67
2023/05/18 09:22:36;;;;;;;5.83;5.43;;;;;;;-145.94;43.10;77885.31;5094835;28;20190;-68
2023/05/18 09:25:02;;;;;;;9.93;5.53;;;;;;;-145.94;43.03;77893.47;5094750;28;20656;-67
2023/05/18 09:27:29;;;;;;;12.17;5.30;;;;;;;-145.94;43.79;77889.41;5094882;28;20267;-67
2023/05/18 09:29:57;;;;;;;12.80;5.50;;;;;;;-145.94;43.64;77858.81;5095005;28;20174;-67
2023/05/18 09:32:25;;;;;;;6.03;5.53;;;;;;;-145.94;43.94;77850.66;5094690;28;20182;-67
2023/05/18 09:34:52;;;;;;;6.43;5.77;;;;;;;-145.94;43.11;77836.38;5095157;28;20181;-67
2023/05/18 09:37:20;;;;;;;6.50;6.00;;;;;;;-145.94;43.08;77828.22;5094451;28;20228;-67
2023/05/18 09:39:58;;;;;;;6.27;5.83;;;;;;;-145.94;42.02;77830.25;5094594;28;20174;-67
2023/05/18 09:42:36;;;;;;;8.20;6.17;;;;;;;-145.94;42.82;77818.00;5095019;28;20177;-66
2023/05/18 09:45:28;;;;;;;9.47;6.03;;;;;;;-145.94;42.37;77815.97;5094571;28;20174;-67
2023/05/18 09:47:55;;;;;;;8.77;6.20;;;;;;;-145.94;42.09;77818.00;5091066;28;20247;-67
2023/05/18 09:50:23;;;;;;;7.07;4.97;;;;;;;-145.94;42.44;77818.00;5094554;28;20178;-67
2023/05/18 09:52:50;;;;;;;5.97;5.53;;;;;;;-145.94;42.24;77834.31;5076284;28;20671;-67
2023/05/18 09:55:18;;;;;;;4.67;4.60;;;;;;;-145.94;43.78;77820.06;5094397;28;20215;-67
2023/05/18 09:57:47;;;;;;;14.77;5.83;;;;;;;-145.94;42.48;77801.69;5094139;28;20552;-67
2023/05/18 10:00:15;;;;;;;5.60;5.33;;;;;;;-145.94;42.62;77797.63;5094094;28;20656;-67
2023/05/18 10:02:47;;;;;;;8.20;5.90;;;;;;;-145.94;42.16;77787.41;5094635;28;20181;-67
2023/05/18 10:05:30;;;;;;;6.50;6.03;;;;;;;-145.94;42.88;77760.91;5094225;28;20625;-67
2023/05/18 10:08:01;;;;;;;5.50;4.77;;;;;;;-145.94;41.96;77754.78;5094507;28;20691;-67
2023/05/18 10:10:28;;;;;;;5.07;4.77;;;;;;;-145.94;41.86;77762.94;5093960;28;20647;-67
2023/05/18 10:12:57;;;;;;;7.50;5.97;;;;;;;-145.94;41.66;77777.22;5093816;28;20601;-67
2023/05/18 10:15:24;;;;;;;12.37;6.27;;;;;;;-145.94;41.90;77771.09;5093894;28;20586;-67
2023/05/18 10:17:56;;;;;;;8.47;4.97;;;;;;;-145.94;41.70;77750.69;5093746;28;20297;-68
2023/05/18 10:20:25;;;;;;;8.57;5.07;;;;;;;-145.94;42.75;77775.19;5094357;28;20174;-66
2023/05/18 10:22:54;;;;;;;7.77;6.30;;;;;;;-145.94;42.62;77777.22;5093716;28;20182;-67
2023/05/18 10:25:24;;;;;;;7.57;5.57;;;;;;;-145.94;43.15;77758.84;5093587;28;20202;-67
2023/05/18 10:27:55;;;;;;;6.30;5.80;;;;;;;-145.94;42.30;77750.69;5092906;28;20217;-67
2023/05/18 10:30:22;;;;;;;5.40;5.20;;;;;;;-145.94;42.36;77732.34;5094699;28;20531;-67
2023/05/18 10:32:50;;;;;;;11.50;5.17;;;;;;;-145.94;43.26;77703.78;5093921;28;20189;-67
2023/05/18 10:35:17;;;;;;;7.93;6.00;;;;;;;-145.94;43.56;77695.63;5093533;28;20599;-67
2023/05/18 10:37:46;;;;;;;6.00;5.57;;;;;;;-145.94;42.14;77681.34;5093595;28;20259;-68
2023/05/18 10:40:14;;;;;;;5.97;5.53;;;;;;;-145.94;40.98;77695.63;5093445;28;20242;-67
2023/05/18 10:42:42;;;;;;;12.87;5.97;;;;;;;-145.94;42.21;77705.81;5093439;28;20239;-67
2023/05/18 10:45:09;;;;;;;5.50;4.97;;;;;;;-145.94;41.56;77714.00;5093973;28;20190;-67
2023/05/18 10:47:39;;;;;;;6.97;6.30;;;;;;;-145.94;41.63;77701.75;5093632;28;20275;-67
2023/05/18 10:50:07;;;;;;;7.30;6.60;;;;;;;-145.94;41.99;77707.88;5093930;28;20185;-67
2023/05/18 10:52:36;;;;;;;7.63;6.60;;;;;;;-145.94;41.01;77701.75;5093295;28;20189;-67
2023/05/18 10:55:03;;;;;;;5.77;5.33;;;;;;;-145.94;42.17;77691.56;5093841;28;20235;-67
2023/05/18 10:57:38;;;;;;;7.07;5.80;;;;;;;-145.94;40.64;77675.22;5093415;28;20228;-67
2023/05/18 11:00:08;;;;;;;8.50;5.97;;;;;;;-145.94;39.88;77683.38;5093568;28;20162;-68
2023/05/18 11:02:38;;;;;;;5.53;5.03;;;;;;;-145.94;41.36;77681.34;5093205;28;20201;-67
2023/05/18 11:05:06;;;;;;;15.27;6.07;;;;;;;-145.94;41.08;77677.28;5093847;28;20223;-67
2023/05/18 11:07:33;;;;;;;6.23;5.77;;;;;;;-145.94;39.93;77683.38;5093001;28;20256;-67
2023/05/18 11:10:01;;;;;;;6.17;5.60;;;;;;;-145.94;40.89;77687.47;5093261;28;20182;-68
2023/05/18 11:12:31;;;;;;;7.07;5.90;;;;;;;-145.94;41.16;77681.34;5093363;28;20193;-68
2023/05/18 11:14:58;;;;;;;6.10;5.60;;;;;;;-145.94;41.88;77687.47;5093735;28;20181;-67
2023/05/18 11:17:27;;;;;;;5.77;5.23;;;;;;;-145.94;41.88;77681.34;5093050;28;20235;-67
2023/05/18 11:20:03;;;;;;;6.57;6.27;;;;;;;-145.94;40.53;77675.22;5093083;28;20186;-67
2023/05/18 11:22:40;;;;;;;9.70;6.43;;;;;;;-145.94;41.14;77667.06;5093146;28;20182;-67